Wabash, Indiana
Current Conditions -  °F | °C
As of 3:15 AM on Thursday 29 Jan 2015 (Local Time) from KHHG Reporting Station
Overcast Overcast  
Wind Chill: 24°   Ceiling: 6500
Heat Index: 33°   Visibility: 10mi
Dew Point: 18°   Wind: 12mph
Humidity: 55%   Direction: 160°SSE
Pressure: 29.88"   Gusts: NA
Location:  40.8°N, 85.82°W
Report Text: KHHG 290815Z AUTO 16010KT 10SM BKN065 OVC110 01/M08 A2988 RMK AO2 T00051077
Loading
Personal Weather Stations






























Interactive Weather Map New forecast layout! Learn more

10-Day Weather Forecast

Advertisements
Track Severe Weather on mobile